createdAt,value
2022-10-02T00:03:16.721Z,96992.09
2022-10-02T00:07:18.384Z,97021.75
2022-10-02T00:11:25.337Z,97033.00
2022-10-02T00:15:31.359Z,97050.19
2022-10-02T00:19:28.653Z,97059.53
2022-10-02T00:23:41.689Z,97036.72
2022-10-02T00:27:48.400Z,97068.47
2022-10-02T00:32:11.507Z,97071.53
2022-10-02T00:36:54.499Z,97069.34
2022-10-02T00:41:15.258Z,97060.63
2022-10-02T00:45:56.314Z,97074.75
2022-10-02T00:50:40.715Z,97087.47
2022-10-02T00:55:28.943Z,97066.06
2022-10-02T00:59:42.982Z,97081.66
2022-10-02T01:03:53.407Z,97072.69
2022-10-02T01:07:54.491Z,97078.16
2022-10-02T01:11:52.585Z,97070.22
2022-10-02T01:16:00.724Z,97079.63
2022-10-02T01:20:05.033Z,97093.44
2022-10-02T01:24:22.771Z,97078.13
2022-10-02T01:28:20.499Z,97063.78
2022-10-02T01:32:18.751Z,97087.59
2022-10-02T01:36:17.222Z,97073.84
2022-10-02T01:40:25.395Z,97092.16
2022-10-02T01:44:24.890Z,97085.41
2022-10-02T01:48:37.267Z,97088.88
2022-10-02T01:53:12.526Z,97094.44
2022-10-02T01:57:32.270Z,97097.25
2022-10-02T02:01:47.451Z,97088.88
2022-10-02T02:06:00.477Z,97100.22
2022-10-02T02:10:14.105Z,97092.28
2022-10-02T02:14:51.838Z,97096.16
2022-10-02T02:18:58.448Z,97108.97
2022-10-02T02:23:04.195Z,97101.00
2022-10-02T02:27:06.400Z,97106.84
2022-10-02T02:31:08.399Z,97109.22
2022-10-02T02:35:17.589Z,97107.94
2022-10-02T02:39:28.826Z,97106.25
2022-10-02T02:43:39.503Z,97092.50
2022-10-02T02:47:55.994Z,97092.91
2022-10-02T02:51:57.246Z,97098.22
2022-10-02T02:55:58.343Z,97104.00
2022-10-02T03:00:00.103Z,97106.94
2022-10-02T03:03:57.382Z,97106.13
2022-10-02T03:08:05.189Z,97083.47
2022-10-02T03:12:17.162Z,97104.00
2022-10-02T03:16:41.572Z,97101.31
2022-10-02T03:20:57.359Z,97106.84
2022-10-02T03:24:54.278Z,97115.88
2022-10-02T03:28:57.475Z,97098.56
2022-10-02T03:33:01.155Z,97092.97
2022-10-02T03:36:58.382Z,97100.78
2022-10-02T03:40:58.480Z,97112.31
2022-10-02T03:44:55.446Z,97104.75
2022-10-02T03:48:52.570Z,97113.47
2022-10-02T03:52:53.092Z,97113.00
2022-10-02T03:57:03.587Z,97088.50
2022-10-02T04:01:17.179Z,97104.00
2022-10-02T04:05:33.534Z,97111.44
2022-10-02T04:09:59.496Z,97095.34
2022-10-02T04:14:30.363Z,97101.09
2022-10-02T04:19:02.136Z,97105.13
2022-10-02T04:23:21.598Z,97101.81
2022-10-02T04:27:35.084Z,97089.47
2022-10-02T04:31:32.360Z,97084.59
2022-10-02T04:35:47.228Z,97106.97
2022-10-02T04:40:22.161Z,97102.09
2022-10-02T04:44:55.241Z,97097.91
2022-10-02T04:48:58.110Z,97103.06
2022-10-02T04:53:28.282Z,97104.34
2022-10-02T04:57:28.238Z,97117.47
2022-10-02T05:02:02.364Z,97122.06
2022-10-02T05:06:24.478Z,97111.03
2022-10-02T05:10:58.603Z,97117.50
2022-10-02T05:15:35.000Z,97120.78
2022-10-02T05:19:44.077Z,97120.53
2022-10-02T05:24:05.363Z,97123.06
2022-10-02T05:28:17.191Z,97115.84
2022-10-02T05:32:36.285Z,97114.19
2022-10-02T05:36:59.697Z,97119.84
2022-10-02T05:41:11.902Z,97089.63
2022-10-02T05:45:44.265Z,97102.72
2022-10-02T05:49:59.516Z,97098.13
2022-10-02T05:54:11.104Z,97112.97
2022-10-02T05:58:34.726Z,97114.03
2022-10-02T06:02:52.143Z,97111.31
2022-10-02T06:06:51.866Z,97108.28
2022-10-02T06:10:59.273Z,97106.09
2022-10-02T06:15:16.871Z,97117.03
2022-10-02T06:19:27.296Z,97125.03
2022-10-02T06:23:42.144Z,97132.00
2022-10-02T06:28:06.214Z,97118.88
2022-10-02T06:32:45.155Z,97114.25
2022-10-02T06:37:25.894Z,97127.44
2022-10-02T06:41:42.813Z,97132.59
2022-10-02T06:46:22.980Z,97139.69
2022-10-02T06:50:51.591Z,97139.31
2022-10-02T06:55:32.956Z,97124.44
2022-10-02T07:00:18.226Z,97121.78
2022-10-02T07:05:01.405Z,97122.84
2022-10-02T07:09:45.351Z,97113.69
2022-10-02T07:14:22.711Z,97108.06
2022-10-02T07:18:45.283Z,97097.56
2022-10-02T07:22:59.086Z,97115.50
2022-10-02T07:27:33.053Z,97115.75
2022-10-02T07:31:48.021Z,97103.25
2022-10-02T07:36:04.106Z,97117.38
2022-10-02T07:40:22.036Z,97127.41
2022-10-02T07:44:47.866Z,97141.19
2022-10-02T07:49:08.801Z,97125.25
2022-10-02T07:53:10.932Z,97121.75
2022-10-02T07:57:39.624Z,97129.34
2022-10-02T08:01:41.780Z,97108.44
2022-10-02T08:05:47.864Z,97104.38
2022-10-02T08:09:52.128Z,97134.63
2022-10-02T08:14:21.836Z,97131.16
2022-10-02T08:18:43.577Z,97140.66
2022-10-02T08:22:48.442Z,97149.63
2022-10-02T08:26:54.278Z,97148.34
2022-10-02T08:30:52.678Z,97139.13
2022-10-02T08:34:57.160Z,97136.69
2022-10-02T08:39:18.609Z,97129.28
2022-10-02T08:43:37.714Z,97142.72
2022-10-02T08:48:24.177Z,97113.66
2022-10-02T08:52:59.887Z,97141.50
2022-10-02T08:57:13.987Z,97144.94
2022-10-02T09:01:14.627Z,97145.69
2022-10-02T09:05:43.912Z,97134.09
2022-10-02T09:09:46.447Z,97143.38
2022-10-02T09:14:45.876Z,97140.09
2022-10-02T09:19:23.109Z,97140.44
2022-10-02T09:24:17.316Z,97144.38
2022-10-02T09:29:01.046Z,97104.69
2022-10-02T09:33:39.855Z,97108.81
2022-10-02T09:38:39.139Z,97129.06
2022-10-02T09:42:57.840Z,97130.41
2022-10-02T09:47:35.639Z,97142.19
2022-10-02T09:52:40.597Z,97124.25
2022-10-02T09:57:41.813Z,97127.16
2022-10-02T10:02:00.145Z,97089.63
2022-10-02T10:06:23.383Z,97093.94
2022-10-02T10:10:46.727Z,97109.44
2022-10-02T10:15:09.252Z,97114.03
2022-10-02T10:19:42.294Z,97122.72
2022-10-02T10:24:00.891Z,97128.88
2022-10-02T10:28:44.753Z,97122.34
2022-10-02T10:33:37.181Z,97122.56
2022-10-02T10:38:12.247Z,97117.97
2022-10-02T10:43:07.033Z,97112.81
2022-10-02T10:48:02.404Z,97115.13
2022-10-02T10:52:25.517Z,97059.78
2022-10-02T10:56:47.372Z,97087.31
2022-10-02T11:01:15.591Z,97077.53
2022-10-02T11:05:30.478Z,97091.41
2022-10-02T11:09:39.189Z,97080.66
2022-10-02T11:14:16.905Z,97083.34
2022-10-02T11:18:39.278Z,97086.31
2022-10-02T11:23:09.213Z,97063.13
2022-10-02T11:27:30.321Z,97079.88
2022-10-02T11:32:00.483Z,97014.09
2022-10-02T11:36:18.686Z,97071.56
2022-10-02T11:40:58.404Z,97068.00
2022-10-02T11:45:32.850Z,97071.72
2022-10-02T11:50:01.353Z,97075.03
2022-10-02T11:54:33.265Z,97069.84
2022-10-02T11:59:18.430Z,97061.63
2022-10-02T12:03:45.040Z,97066.84
2022-10-02T12:08:10.823Z,97067.75
2022-10-02T12:12:51.703Z,97073.63
2022-10-02T12:17:10.975Z,97080.66
2022-10-02T12:22:22.900Z,97066.13
2022-10-02T12:27:09.246Z,97078.66
2022-10-02T12:31:33.028Z,97073.59
2022-10-02T12:35:48.139Z,97058.81
2022-10-02T12:40:14.686Z,97077.03
2022-10-02T12:44:35.891Z,97070.78
2022-10-02T12:49:20.268Z,97062.00
2022-10-02T12:54:03.946Z,97064.00
2022-10-02T12:58:31.761Z,97055.78
2022-10-02T13:03:02.131Z,97050.22
2022-10-02T13:07:17.050Z,97038.09
2022-10-02T13:11:55.719Z,97041.84
2022-10-02T13:16:34.687Z,97040.06
2022-10-02T13:20:44.800Z,97047.44
2022-10-02T13:25:20.841Z,97058.50
2022-10-02T13:30:02.903Z,97062.50
2022-10-02T13:34:11.440Z,97044.66
2022-10-02T13:38:41.708Z,97022.94
2022-10-02T13:42:56.810Z,97053.31
2022-10-02T13:47:27.672Z,97060.03
2022-10-02T13:51:50.519Z,97053.38
2022-10-02T13:56:15.782Z,97029.38
2022-10-02T14:00:37.478Z,97046.31
2022-10-02T14:05:14.911Z,97035.47
2022-10-02T14:09:50.305Z,97043.38
2022-10-02T14:14:42.444Z,97041.25
2022-10-02T14:19:24.710Z,97043.59
2022-10-02T14:23:52.610Z,97023.44
2022-10-02T14:28:15.919Z,97037.31
2022-10-02T14:32:38.870Z,97037.75
2022-10-02T14:37:23.268Z,97039.63
2022-10-02T14:41:57.178Z,97029.19
2022-10-02T14:46:23.163Z,97027.66
2022-10-02T14:51:08.863Z,97042.22
2022-10-02T14:55:53.927Z,97029.63
2022-10-02T15:00:13.851Z,96980.91
2022-10-02T15:04:55.787Z,97042.28
2022-10-02T15:09:07.111Z,97058.72
2022-10-02T15:13:24.397Z,97050.38
2022-10-02T15:18:20.192Z,97011.31
2022-10-02T15:22:31.736Z,97041.84
2022-10-02T15:26:46.735Z,97050.22
2022-10-02T15:30:59.808Z,97054.56
2022-10-02T15:35:05.680Z,97066.22
2022-10-02T15:44:27.839Z,97059.81
2022-10-02T15:49:02.546Z,97062.34
2022-10-02T15:53:54.718Z,97063.59
2022-10-02T15:58:26.395Z,97064.94
2022-10-02T16:02:57.457Z,97059.59
2022-10-02T16:07:45.275Z,97068.78
2022-10-02T16:12:39.961Z,97066.59
2022-10-02T16:16:37.334Z,97066.72
2022-10-02T16:20:49.473Z,97066.94
2022-10-02T16:25:07.544Z,97061.94
2022-10-02T16:29:23.190Z,97055.69
2022-10-02T16:34:00.516Z,97075.03
2022-10-02T16:38:43.319Z,97040.94
2022-10-02T16:42:56.763Z,97075.78
2022-10-02T16:47:02.587Z,97088.06
2022-10-02T16:51:16.795Z,97090.25
2022-10-02T16:55:59.406Z,97082.09
2022-10-02T17:00:32.256Z,97050.72
2022-10-02T17:04:41.519Z,97089.19
2022-10-02T17:08:44.267Z,97091.97
2022-10-02T17:13:26.685Z,97107.03
2022-10-02T17:17:47.816Z,97123.34
2022-10-02T17:22:27.091Z,97140.13
2022-10-02T17:26:40.813Z,97140.31
2022-10-02T17:31:16.806Z,97129.94
2022-10-02T17:35:38.281Z,97143.28
2022-10-02T17:40:05.347Z,97158.63
2022-10-02T17:44:12.307Z,97162.94
2022-10-02T17:48:38.192Z,97161.56
2022-10-02T17:53:02.227Z,97158.03
2022-10-02T17:57:46.878Z,97174.88
2022-10-02T18:01:59.305Z,97185.41
2022-10-02T18:06:48.185Z,97193.94
2022-10-02T18:11:09.830Z,97183.94
2022-10-02T18:15:48.893Z,97198.81
2022-10-02T18:20:19.328Z,97210.16
2022-10-02T18:25:14.369Z,97212.00
2022-10-02T18:29:46.742Z,97225.75
2022-10-02T18:34:31.936Z,97212.78
2022-10-02T18:38:56.276Z,97221.38
2022-10-02T18:43:14.872Z,97228.84
2022-10-02T18:47:35.134Z,97229.63
2022-10-02T18:52:09.334Z,97237.28
2022-10-02T18:56:14.950Z,97236.34
2022-10-02T19:00:24.693Z,97256.34
2022-10-02T19:05:04.628Z,97256.34
2022-10-02T19:09:07.723Z,97266.03
2022-10-02T19:13:17.932Z,97270.63
2022-10-02T19:17:24.141Z,97226.34
2022-10-02T19:21:21.831Z,97266.56
2022-10-02T19:25:20.511Z,97286.25
2022-10-02T19:29:20.585Z,97293.91
2022-10-02T19:33:28.310Z,97296.66
2022-10-02T19:37:27.150Z,97269.88
2022-10-02T19:41:25.437Z,97308.66
2022-10-02T19:45:30.041Z,97313.59
2022-10-02T19:49:40.077Z,97299.28
2022-10-02T19:53:56.306Z,97321.13
2022-10-02T19:58:28.637Z,97324.47
2022-10-02T20:02:36.938Z,97328.00
2022-10-02T20:06:39.863Z,97309.41
2022-10-02T20:10:46.388Z,97327.56
2022-10-02T20:14:55.802Z,97317.44
2022-10-02T20:18:52.844Z,97343.28
2022-10-02T20:23:00.249Z,97351.91
2022-10-02T20:27:17.750Z,97365.44
2022-10-02T20:31:24.718Z,97352.50
2022-10-02T20:35:40.254Z,97323.91
2022-10-02T20:40:02.335Z,97349.88
2022-10-02T20:44:04.716Z,97367.66
2022-10-02T20:49:03.107Z,97366.84
2022-10-02T20:53:22.284Z,97371.72
2022-10-02T20:58:00.123Z,97380.34
2022-10-02T21:02:13.259Z,97382.75
2022-10-02T21:06:47.298Z,97390.84
2022-10-02T21:11:02.487Z,97385.97
2022-10-02T21:15:18.105Z,97389.22
2022-10-02T21:19:45.776Z,97381.72
2022-10-02T21:24:10.544Z,97405.34
2022-10-02T21:28:25.688Z,97400.78
2022-10-02T21:32:38.295Z,97398.66
2022-10-02T21:36:58.876Z,97400.78
2022-10-02T21:41:54.992Z,97406.41
2022-10-02T21:46:14.005Z,97428.16
2022-10-02T21:50:36.176Z,97417.69
2022-10-02T21:55:22.593Z,97430.59
2022-10-02T21:59:45.065Z,97418.50
2022-10-02T22:04:19.990Z,97447.75
2022-10-02T22:08:43.967Z,97450.13
2022-10-02T22:13:19.260Z,97454.66
2022-10-02T22:17:50.102Z,97457.09
2022-10-02T22:22:25.493Z,97460.03
2022-10-02T22:26:58.330Z,97420.25
2022-10-02T22:30:55.322Z,97463.78
2022-10-02T22:35:21.786Z,97454.44
2022-10-02T22:39:32.998Z,97451.47
2022-10-02T22:44:01.804Z,97470.22
2022-10-02T22:48:36.255Z,97457.84
2022-10-02T22:52:47.508Z,97470.22
2022-10-02T22:57:10.708Z,97480.38
2022-10-02T23:01:39.097Z,97455.13
2022-10-02T23:05:42.287Z,97475.56
2022-10-02T23:10:17.706Z,97478.19
2022-10-02T23:14:34.879Z,97478.19
2022-10-02T23:18:48.963Z,97466.88
2022-10-02T23:23:15.750Z,97490.72
2022-10-02T23:27:24.418Z,97467.38
2022-10-02T23:31:37.670Z,97485.06
2022-10-02T23:35:55.978Z,97494.28
2022-10-02T23:40:20.057Z,97496.41
2022-10-02T23:44:41.613Z,97499.09
2022-10-02T23:48:39.386Z,97477.59
2022-10-02T23:53:03.584Z,97494.72
2022-10-02T23:57:27.702Z,97512.34
